avis per tempestes more information blitzortung!


avis per Pluja more information rain snow radar


Visita la nostra xarxa de llocs de meteo:

Template documentation
and downloads

And another site



Thunderstorms From: 18-09-2018 09:00 Until: 19-09-2018 20:59 warning for: Thunderstorms Level: Yellow info button
Rain From: 18-09-2018 09:00 Until: 19-09-2018 20:59 warning for: Rain Level: Yellow info button

Pagina Historial Weather Underground text

Diari Resum Setembre 8, 2017 Unitats:  Imperial    Mètric   Tant
« Previous Dia
SegĂźent Dia »
Diari Setmana Mensual Anual Personalitzada
  Maxima: Minima: Media:
Temperatura: TemperatureC °F 16.3 °F 21.8 °F
Punt de rosada: DewpointC °F 11.6 °F 13.2 °F
Humitat: Humidity % 44 % 58 %
Wind Speed: WindSpeedKMH mph 0.0 mph 7.3 mph
RĂ fegues de vent: WindSpeedGustKMH mph - -
Vent:- - SE
Pression baro: PressurehPa in 1005.0 in -
Precipitacions: 0.0 in    
Historical Graphs
 
 
Dades de taula per Setembre 8, 2017
Temps Temperatura Punt de rosada Pression baro Vent Wind Speed RĂ fegues de vent Humitat Rainfall Rate (Hourly)
TemperatureC °F DewpointC °F PressurehPa in Calm     Humidity % HourlyPrecipMM in
00:01 19.8 °F 13.1 °F 1014.8 in West 3.7 mph 3.7 mph 65 % 0.0 in
00:06 19.7 °F 12.9 °F 1014.8 in West 2.3 mph 2.3 mph 65 % 0.0 in
10:29 16.3 °F 12.3 °F 1013.8 in West 1.9 mph   77 % 0.0 in
10:30 16.3 °F 12.3 °F 1013.8 in West 1.9 mph   77 % 0.0 in
10:31 16.3 °F 12.3 °F 1013.8 in West 1.9 mph   77 % 0.0 in
10:36 19.2 °F 13.4 °F 1014.8 in West 2.3 mph   69 % 0.0 in
10:41 19.4 °F 13.6 °F 1014.8 in SSE 3.7 mph 3.7 mph 69 % 0.0 in
10:46 19.5 °F 13.4 °F 1014.8 in Calm     68 % 0.0 in
10:51 20.0 °F 13.7 °F 1014.8 in ENE 5.6 mph 5.6 mph 67 % 0.0 in
10:56 20.1 °F 13.6 °F 1014.8 in NE 5.6 mph 5.6 mph 66 % 0.0 in
11:01 20.4 °F 13.8 °F 1014.8 in ENE 5.6 mph 5.6 mph 66 % 0.0 in
11:06 20.4 °F 13.8 °F 1014.8 in East 5.6 mph 5.6 mph 66 % 0.0 in
11:11 20.8 °F 14.2 °F 1014.8 in NE 5.6 mph 5.6 mph 66 % 0.0 in
11:16 20.8 °F 14.2 °F 1014.8 in ENE 5.6 mph 5.6 mph 66 % 0.0 in
11:21 21.1 °F 14.5 °F 1014.8 in ENE 5.6 mph 5.6 mph 66 % 0.0 in
11:26 21.5 °F 14.9 °F 1014.8 in NW 3.7 mph 3.7 mph 66 % 0.0 in
11:31 21.7 °F 14.8 °F 1014.8 in ENE 5.6 mph 5.6 mph 65 % 0.0 in
11:36 22.1 °F 14.9 °F 1014.8 in ENE 9.7 mph 9.7 mph 64 % 0.0 in
11:41 22.2 °F 15.1 °F 1014.8 in NNE 9.3 mph 9.3 mph 64 % 0.0 in
11:46 22.1 °F 14.9 °F 1014.8 in SW 9.3 mph 9.3 mph 64 % 0.0 in
11:51 22.5 °F 15.3 °F 1014.8 in NNE 11.1 mph 11.1 mph 64 % 0.0 in
11:56 22.6 °F 15.4 °F 1014.8 in NE 9.0 mph 9.0 mph 64 % 0.0 in
12:01 22.7 °F 15.1 °F 1014.8 in SSE 9.3 mph 9.3 mph 62 % 0.0 in
12:06 23.2 °F 15.5 °F 1014.8 in NNE 6.1 mph 6.1 mph 62 % 0.0 in
12:11 23.0 °F 15.3 °F 1013.8 in SW 4.2 mph 4.2 mph 62 % 0.0 in
12:16 23.9 °F 16.2 °F 1013.8 in WNW 3.7 mph 3.7 mph 62 % 0.0 in
12:21 23.7 °F 15.7 °F 1013.8 in East 7.9 mph 7.9 mph 61 % 0.0 in
12:26 23.1 °F 15.4 °F 1013.8 in ESE 9.3 mph 9.3 mph 62 % 0.0 in
12:31 22.9 °F 15.2 °F 1013.8 in East 11.1 mph 11.1 mph 62 % 0.0 in
12:36 23.0 °F 15.1 °F 1013.8 in SE 9.3 mph 9.3 mph 61 % 0.0 in
12:41 23.4 °F 15.7 °F 1013.8 in SSE 9.7 mph 9.7 mph 62 % 0.0 in
12:46 23.4 °F 15.4 °F 1013.8 in South 9.3 mph 9.3 mph 61 % 0.0 in
12:51 23.2 °F 15.5 °F 1013.8 in ESE 11.1 mph 11.1 mph 62 % 0.0 in
12:56 23.2 °F 15.5 °F 1012.8 in East 7.4 mph 7.4 mph 62 % 0.0 in
13:01 23.6 °F 16.2 °F 1012.8 in SE 7.4 mph 7.6 mph 63 % 0.0 in
13:06 23.8 °F 16.1 °F 1013.8 in ESE 11.1 mph 11.1 mph 62 % 0.0 in
13:11 23.5 °F 15.6 °F 1013.8 in East 13.0 mph 13.0 mph 61 % 0.0 in
13:16 23.6 °F 15.6 °F 1013.8 in ESE 9.3 mph 9.3 mph 61 % 0.0 in
13:21 23.6 °F 15.6 °F 1013.8 in SSE 9.3 mph 9.3 mph 61 % 0.0 in
13:26 23.5 °F 15.8 °F 1013.8 in WSW 11.1 mph 11.1 mph 62 % 0.0 in
13:31 23.3 °F 15.6 °F 1013.8 in South 14.8 mph 14.8 mph 62 % 0.0 in
13:36 23.4 °F 15.7 °F 1013.8 in ESE 14.8 mph 14.8 mph 62 % 0.0 in
13:41 23.4 °F 15.4 °F 1013.8 in East 16.7 mph 16.7 mph 61 % 0.0 in
13:46 23.4 °F 15.4 °F 1013.8 in East 7.9 mph 7.9 mph 61 % 0.0 in
13:51 23.6 °F 15.6 °F 1012.8 in East 9.5 mph 9.5 mph 61 % 0.0 in
13:56 23.6 °F 15.6 °F 1012.8 in South 13.0 mph 13.0 mph 61 % 0.0 in
14:01 23.8 °F 15.8 °F 1012.8 in SSW 11.1 mph 11.1 mph 61 % 0.0 in
14:06 23.6 °F 15.6 °F 1012.8 in ENE 13.0 mph 13.0 mph 61 % 0.0 in
14:11 23.4 °F 15.4 °F 1012.8 in ESE 9.3 mph 9.3 mph 61 % 0.0 in
14:16 23.5 °F 15.3 °F 1012.8 in East 19.5 mph 19.5 mph 60 % 0.0 in
14:21 23.6 °F 15.4 °F 1012.8 in ESE 11.1 mph 11.1 mph 60 % 0.0 in
14:26 23.8 °F 15.6 °F 1012.8 in ESE 13.7 mph 13.7 mph 60 % 0.0 in
14:31 24.3 °F 15.5 °F 1012.8 in SW 11.1 mph 11.1 mph 58 % 0.0 in
14:36 24.0 °F 15.2 °F 1011.7 in NE 16.7 mph 16.7 mph 58 % 0.0 in
14:41 24.0 °F 15.5 °F 1011.7 in SE 15.8 mph 15.8 mph 59 % 0.0 in
14:46 24.0 °F 14.9 °F 1011.7 in ESE 16.7 mph 16.7 mph 57 % 0.0 in
14:51 24.2 °F 15.2 °F 1011.7 in East 15.8 mph 15.8 mph 57 % 0.0 in
14:56 23.9 °F 14.6 °F 1011.7 in ENE 14.8 mph 14.8 mph 56 % 0.0 in
15:01 23.9 °F 14.6 °F 1011.7 in SE 14.8 mph 14.8 mph 56 % 0.0 in
15:06 24.3 °F 14.7 °F 1011.7 in East 11.1 mph 11.1 mph 55 % 0.0 in
15:11 24.4 °F 14.5 °F 1011.7 in ESE 14.8 mph 14.8 mph 54 % 0.0 in
15:16 24.6 °F 14.4 °F 1011.7 in SSE 16.7 mph 16.7 mph 53 % 0.0 in
15:21 24.6 °F 14.4 °F 1010.7 in ESE 14.8 mph 14.8 mph 53 % 0.0 in
15:26 24.3 °F 13.8 °F 1010.7 in East 16.7 mph 16.7 mph 52 % 0.0 in
15:31 24.2 °F 13.7 °F 1010.7 in ESE 9.5 mph 9.5 mph 52 % 0.0 in
15:36 24.4 °F 13.9 °F 1011.7 in South 14.8 mph 14.8 mph 52 % 0.0 in
15:41 24.3 °F 14.1 °F 1011.7 in SE 9.3 mph 9.5 mph 53 % 0.0 in
15:46 24.6 °F 14.1 °F 1011.7 in East 14.8 mph 14.8 mph 52 % 0.0 in
15:51 24.6 °F 13.8 °F 1011.7 in ENE 14.8 mph 14.8 mph 51 % 0.0 in
15:56 24.5 °F 13.1 °F 1011.7 in ESE 20.4 mph 20.4 mph 49 % 0.0 in
16:01 24.6 °F 13.2 °F 1011.7 in ESE 16.7 mph 16.7 mph 49 % 0.0 in
16:06 24.5 °F 12.8 °F 1012.8 in ESE 18.5 mph 18.5 mph 48 % 0.0 in
16:11 24.7 °F 12.9 °F 1012.8 in ESE 14.8 mph 14.8 mph 48 % 0.0 in
16:16 24.9 °F 13.1 °F 1012.8 in ESE 14.8 mph 14.8 mph 48 % 0.0 in
16:21 24.9 °F 13.1 °F 1011.7 in SE 13.0 mph 13.0 mph 48 % 0.0 in
16:26 25.1 °F 13.0 °F 1011.7 in SSE 20.4 mph 20.4 mph 47 % 0.0 in
16:31 25.4 °F 13.3 °F 1011.7 in ESE 14.8 mph 14.8 mph 47 % 0.0 in
16:36 25.8 °F 13.6 °F 1011.7 in ENE 5.6 mph 5.6 mph 47 % 0.0 in
16:41 25.3 °F 12.8 °F 1011.7 in East 13.0 mph 13.0 mph 46 % 0.0 in
16:46 25.0 °F 12.2 °F 1011.7 in ENE 16.7 mph 16.7 mph 45 % 0.0 in
16:51 24.8 °F 12.4 °F 1010.7 in ESE 11.1 mph 11.1 mph 46 % 0.0 in
16:52 24.9 °F 12.5 °F 1010.7 in ESE 11.1 mph 11.1 mph 46 % 0.0 in
16:57 25.1 °F 12.3 °F 1010.7 in ESE 14.8 mph 14.8 mph 45 % 0.0 in
17:02 24.8 °F 12.4 °F 1010.7 in East 18.5 mph 18.5 mph 46 % 0.0 in
17:07 24.8 °F 12.1 °F 1010.7 in ESE 16.7 mph 16.7 mph 45 % 0.0 in
17:12 24.9 °F 12.2 °F 1010.7 in ESE 18.5 mph 18.5 mph 45 % 0.0 in
17:17 25.0 °F 11.9 °F 1010.7 in ESE 19.8 mph 19.8 mph 44 % 0.0 in
17:22 24.6 °F 11.9 °F 1010.7 in SE 20.4 mph 20.4 mph 45 % 0.0 in
17:27 24.4 °F 12.3 °F 1010.7 in ESE 13.0 mph 13.0 mph 47 % 0.0 in
17:32 24.4 °F 12.3 °F 1010.7 in ENE 20.6 mph 20.6 mph 47 % 0.0 in
17:37 24.3 °F 12.3 °F 1010.0 in ESE 16.7 mph 16.7 mph 47 % 0.0 in
17:42 24.3 °F 12.3 °F 1010.0 in ESE 13.0 mph 13.0 mph 47 % 0.0 in
17:47 24.3 °F 12.3 °F 1010.0 in East 11.1 mph 11.1 mph 47 % 0.0 in
17:52 24.3 °F 12.6 °F 1010.7 in SSE 13.0 mph 13.0 mph 48 % 0.0 in
17:57 24.3 °F 12.6 °F 1010.7 in ESE 13.0 mph 13.0 mph 48 % 0.0 in
18:02 24.5 °F 12.8 °F 1010.7 in South 7.4 mph 7.4 mph 48 % 0.0 in
18:07 24.4 °F 12.7 °F 1010.0 in SSE 7.9 mph 8.7 mph 48 % 0.0 in
18:12 24.0 °F 12.6 °F 1010.0 in ENE 14.8 mph 14.8 mph 49 % 0.0 in
18:17 24.0 °F 12.6 °F 1010.0 in ENE 9.3 mph 9.3 mph 49 % 0.0 in
18:22 23.8 °F 12.4 °F 1010.0 in East 13.0 mph 13.0 mph 49 % 0.0 in
18:27 23.7 °F 12.7 °F 1010.0 in ESE 13.0 mph 13.0 mph 50 % 0.0 in
18:32 23.5 °F 12.5 °F 1010.0 in SE 13.0 mph 13.0 mph 50 % 0.0 in
18:37 23.6 °F 12.6 °F 1010.0 in East 12.6 mph 12.6 mph 50 % 0.0 in
18:42 23.4 °F 12.4 °F 1010.0 in ESE 13.0 mph 13.0 mph 50 % 0.0 in
18:47 23.3 °F 12.3 °F 1010.0 in ESE 10.0 mph 10.0 mph 50 % 0.0 in
18:52 23.3 °F 12.3 °F 1010.0 in East 14.8 mph 14.8 mph 50 % 0.0 in
18:57 23.2 °F 12.2 °F 1010.0 in ESE 11.1 mph 11.1 mph 50 % 0.0 in
19:02 23.2 °F 12.5 °F 1010.0 in ESE 13.7 mph 13.7 mph 51 % 0.0 in
19:07 23.1 °F 12.4 °F 1009.0 in East 7.6 mph 7.6 mph 51 % 0.0 in
19:12 23.1 °F 12.7 °F 1009.0 in ESE 9.3 mph 9.3 mph 52 % 0.0 in
19:15 19.3 °F 12.1 °F 1014.8 in Calm     63 % 0.0 in
19:17 23.0 °F 12.6 °F 1009.0 in ESE 9.3 mph 9.3 mph 52 % 0.0 in
19:22 23.0 °F 12.6 °F 1010.0 in SSE 10.0 mph 10.0 mph 52 % 0.0 in
19:25 19.3 °F 12.1 °F 1010.0 in Calm     63 % 0.0 in
19:27 22.8 °F 12.7 °F 1010.0 in ESE 11.1 mph 11.1 mph 53 % 0.0 in
19:32 22.8 °F 12.7 °F 1010.0 in ESE 9.3 mph 9.3 mph 53 % 0.0 in
19:35 19.1 °F 11.9 °F 1010.0 in Calm     63 % 0.0 in
19:37 22.7 °F 12.9 °F 1010.0 in East 11.1 mph 11.1 mph 54 % 0.0 in
19:38 22.7 °F 12.9 °F 1010.0 in ESE 9.3 mph 9.3 mph 54 % 0.0 in
19:43 22.6 °F 12.8 °F 1010.0 in ESE 9.7 mph 9.7 mph 54 % 0.0 in
19:45 19.0 °F 11.8 °F 1010.0 in Calm   1.6 mph 63 % 0.0 in
19:48 22.5 °F 13.0 °F 1010.0 in SE 7.4 mph 7.4 mph 55 % 0.0 in
19:53 22.4 °F 12.9 °F 1010.0 in ESE 9.3 mph 9.3 mph 55 % 0.0 in
19:55 19.0 °F 11.8 °F 1010.0 in Calm     63 % 0.0 in
19:58 22.3 °F 12.8 °F 1010.0 in ESE 7.9 mph 7.9 mph 55 % 0.0 in
20:03 22.3 °F 12.8 °F 1010.0 in East 5.0 mph 5.0 mph 55 % 0.0 in
20:05 19.0 °F 11.8 °F 1010.0 in Calm     63 % 0.0 in
20:08 22.2 °F 12.7 °F 1010.0 in ESE 7.4 mph 7.4 mph 55 % 0.0 in
20:13 22.1 °F 12.6 °F 1010.0 in ESE 3.7 mph 3.7 mph 55 % 0.0 in
20:15 19.2 °F 12.0 °F 1010.0 in SW 1.6 mph 3.2 mph 63 % 0.0 in
20:18 22.0 °F 12.8 °F 1010.0 in ESE 6.9 mph 6.9 mph 56 % 0.0 in
20:23 22.0 °F 12.6 °F 1010.0 in East 3.7 mph 3.7 mph 55 % 0.0 in
20:25 19.3 °F 12.3 °F 1009.0 in Calm   1.6 mph 64 % 0.0 in
20:28 21.8 °F 12.6 °F 1010.0 in SW 3.7 mph 3.7 mph 56 % 0.0 in
20:33 21.6 °F 12.7 °F 1010.0 in SSW 1.9 mph   57 % 0.0 in
20:35 19.3 °F 12.3 °F 1009.0 in Calm   1.6 mph 64 % 0.0 in
20:38 21.5 °F 12.6 °F 1010.0 in Calm     57 % 0.0 in
20:43 21.4 °F 12.5 °F 1010.0 in Calm     57 % 0.0 in
20:45 19.1 °F 12.1 °F 1009.0 in WSW 1.6 mph 3.2 mph 64 % 0.0 in
20:48 21.3 °F 12.4 °F 1010.0 in Calm     57 % 0.0 in
20:53 21.2 °F 12.3 °F 1010.0 in Calm     57 % 0.0 in
20:55 18.9 °F 12.2 °F 1008.0 in SW 3.2 mph 3.2 mph 65 % 0.0 in
20:58 21.2 °F 12.3 °F 1010.0 in Calm     57 % 0.0 in
21:03 21.0 °F 12.2 °F 1010.0 in Calm     57 % 0.0 in
21:05 18.8 °F 12.3 °F 1008.0 in Calm   1.6 mph 66 % 0.0 in
21:08 21.0 °F 12.2 °F 1010.0 in Calm     57 % 0.0 in
21:13 20.8 °F 12.2 °F 1010.0 in SW 3.9 mph 3.9 mph 58 % 0.0 in
21:15 18.6 °F 12.1 °F 1008.0 in Calm   1.6 mph 66 % 0.0 in
21:18 20.6 °F 12.1 °F 1010.0 in SSW 3.7 mph 3.7 mph 58 % 0.0 in
21:23 20.5 °F 11.9 °F 1010.0 in West 3.7 mph 3.7 mph 58 % 0.0 in
21:25 18.6 °F 12.1 °F 1008.0 in WSW 1.6 mph 3.2 mph 66 % 0.0 in
21:28 20.4 °F 11.8 °F 1010.0 in SW 2.6 mph   58 % 0.0 in
21:33 20.3 °F 11.8 °F 1010.0 in SW 3.7 mph   58 % 0.0 in
21:35 18.6 °F 12.3 °F 1008.0 in NE 1.6 mph 3.2 mph 67 % 0.0 in
21:38 20.2 °F 11.7 °F 1010.0 in WSW 1.9 mph   58 % 0.0 in
21:43 20.2 °F 11.7 °F 1010.0 in Calm     58 % 0.0 in
21:45 18.6 °F 12.3 °F 1007.0 in Calm   3.2 mph 67 % 0.0 in
21:48 20.1 °F 11.6 °F 1010.0 in Calm     58 % 0.0 in
21:53 20.0 °F 11.7 °F 1010.0 in WSW 1.9 mph   59 % 0.0 in
21:55 18.6 °F 12.6 °F 1008.0 in Calm   3.2 mph 68 % 0.0 in
21:58 20.0 °F 11.7 °F 1010.0 in Calm     59 % 0.0 in
22:03 19.9 °F 11.9 °F 1010.0 in Calm     60 % 0.0 in
22:05 18.7 °F 12.9 °F 1008.0 in Calm     69 % 0.0 in
22:08 19.8 °F 11.8 °F 1010.0 in Calm     60 % 0.0 in
22:13 19.7 °F 11.7 °F 1010.0 in Calm     60 % 0.0 in
22:15 18.7 °F 12.9 °F 1007.0 in NNE 1.6 mph 3.2 mph 69 % 0.0 in
22:18 19.7 °F 11.7 °F 1010.0 in Calm     60 % 0.0 in
22:23 19.6 °F 11.6 °F 1010.0 in Calm     60 % 0.0 in
22:25 18.7 °F 13.1 °F 1007.0 in NNE 1.6 mph 3.2 mph 70 % 0.0 in
22:28 19.6 °F 11.6 °F 1010.0 in NW 3.7 mph 3.7 mph 60 % 0.0 in
22:33 19.7 °F 11.7 °F 1010.0 in NW 1.9 mph 1.9 mph 60 % 0.0 in
22:35 18.6 °F 13.0 °F 1007.0 in NNE 1.6 mph 1.6 mph 70 % 0.0 in
22:38 19.7 °F 11.7 °F 1010.0 in Calm     60 % 0.0 in
22:43 19.7 °F 11.9 °F 1010.0 in Calm     61 % 0.0 in
22:45 18.6 °F 13.0 °F 1007.0 in NNE 1.6 mph 4.8 mph 70 % 0.0 in
22:48 19.7 °F 11.9 °F 1010.0 in Calm     61 % 0.0 in
22:53 19.6 °F 11.9 °F 1010.0 in Calm     61 % 0.0 in
22:55 18.5 °F 13.2 °F 1006.0 in NE 4.8 mph 6.4 mph 71 % 0.0 in
22:58 19.7 °F 11.9 °F 1010.0 in Calm     61 % 0.0 in
23:03 19.7 °F 11.7 °F 1010.0 in Calm     60 % 0.0 in
23:05 18.4 °F 13.1 °F 1006.0 in NE 4.8 mph 6.4 mph 71 % 0.0 in
23:08 19.8 °F 12.1 °F 1010.0 in Calm     61 % 0.0 in
23:13 19.9 °F 11.9 °F 1010.0 in NW 2.3 mph 2.3 mph 60 % 0.0 in
23:15 18.4 °F 13.3 °F 1006.0 in NNE 3.2 mph 6.4 mph 72 % 0.0 in
23:18 20.0 °F 11.7 °F 1010.0 in NW 1.9 mph 1.9 mph 59 % 0.0 in
23:23 20.0 °F 12.0 °F 1010.0 in Calm     60 % 0.0 in
23:25 18.3 °F 13.2 °F 1006.0 in NE 4.8 mph 6.4 mph 72 % 0.0 in
23:28 20.0 °F 12.0 °F 1010.0 in Calm     60 % 0.0 in
23:33 20.0 °F 12.0 °F 1010.0 in Calm     60 % 0.0 in
23:35 18.4 °F 13.4 °F 1006.0 in NNE 1.6 mph 6.4 mph 73 % 0.0 in
23:38 20.0 °F 12.0 °F 1009.0 in Calm     60 % 0.0 in
23:43 19.9 °F 12.2 °F 1009.0 in SSW 1.9 mph 2.3 mph 61 % 0.0 in
23:45 18.4 °F 13.4 °F 1005.0 in NNW 1.6 mph 4.8 mph 73 % 0.0 in
23:48 19.6 °F 11.9 °F 1009.0 in SSW 1.9 mph 1.9 mph 61 % 0.0 in
23:53 19.4 °F 11.7 °F 1010.0 in SW 3.2 mph   61 % 0.0 in
23:55 18.4 °F 13.4 °F 1006.0 in NNW 1.6 mph 3.2 mph 73 % 0.0 in
23:58 19.3 °F 11.6 °F 1010.0 in SW 2.3 mph 2.3 mph 61 % 0.0 in
Meteo Sesrovires
Elogis d' Weather Underground - 1.5 mb

Guio original per  Jim McMurry - jmcmurry@mwt.net Adaptat per a la plantilla per  Wim van der Kuil - Leuven-Template.eu

Trobareu la nostra informacio del temps tambe a:

Weather Underground

AWEKAS